sensor_id;sensor_type;location;lat;lon;timestamp;temperature;humidity
42159;DHT22;27822;44.430;10.790;2022-07-30T00:00:20;22.80;98.20
42159;DHT22;27822;44.430;10.790;2022-07-30T00:02:46;22.80;98.40
42159;DHT22;27822;44.430;10.790;2022-07-30T00:05:13;22.70;98.50
42159;DHT22;27822;44.430;10.790;2022-07-30T00:07:39;22.70;98.60
42159;DHT22;27822;44.430;10.790;2022-07-30T00:10:05;22.70;98.40
42159;DHT22;27822;44.430;10.790;2022-07-30T00:12:31;22.70;98.40
42159;DHT22;27822;44.430;10.790;2022-07-30T00:14:57;22.70;98.40
42159;DHT22;27822;44.430;10.790;2022-07-30T00:17:22;22.60;98.40
42159;DHT22;27822;44.430;10.790;2022-07-30T00:19:48;22.60;98.40
42159;DHT22;27822;44.430;10.790;2022-07-30T00:22:14;22.60;98.30
42159;DHT22;27822;44.430;10.790;2022-07-30T00:24:40;22.60;98.40
42159;DHT22;27822;44.430;10.790;2022-07-30T00:27:06;22.60;98.40
42159;DHT22;27822;44.430;10.790;2022-07-30T00:29:31;22.60;98.50
42159;DHT22;27822;44.430;10.790;2022-07-30T00:31:57;22.60;98.70
42159;DHT22;27822;44.430;10.790;2022-07-30T00:34:23;22.60;98.80
42159;DHT22;27822;44.430;10.790;2022-07-30T00:36:49;22.60;98.80
42159;DHT22;27822;44.430;10.790;2022-07-30T00:39:15;22.50;98.60
42159;DHT22;27822;44.430;10.790;2022-07-30T00:41:55;22.50;98.70
42159;DHT22;27822;44.430;10.790;2022-07-30T00:44:21;22.50;98.60
42159;DHT22;27822;44.430;10.790;2022-07-30T00:46:47;22.50;98.60
42159;DHT22;27822;44.430;10.790;2022-07-30T00:49:12;22.50;98.60
42159;DHT22;27822;44.430;10.790;2022-07-30T00:51:38;22.50;98.70
42159;DHT22;27822;44.430;10.790;2022-07-30T00:54:04;22.50;98.70
42159;DHT22;27822;44.430;10.790;2022-07-30T00:56:30;22.50;98.80
42159;DHT22;27822;44.430;10.790;2022-07-30T00:58:55;22.40;98.80
42159;DHT22;27822;44.430;10.790;2022-07-30T01:01:21;22.40;98.80
42159;DHT22;27822;44.430;10.790;2022-07-30T01:03:47;22.40;98.70
42159;DHT22;27822;44.430;10.790;2022-07-30T01:06:13;22.40;98.70
42159;DHT22;27822;44.430;10.790;2022-07-30T01:08:38;22.40;98.70
42159;DHT22;27822;44.430;10.790;2022-07-30T01:11:04;22.40;98.60
42159;DHT22;27822;44.430;10.790;2022-07-30T01:13:30;22.40;98.60
42159;DHT22;27822;44.430;10.790;2022-07-30T01:15:56;22.30;98.60
42159;DHT22;27822;44.430;10.790;2022-07-30T01:18:24;22.30;98.90
42159;DHT22;27822;44.430;10.790;2022-07-30T01:21:12;22.30;98.90
42159;DHT22;27822;44.430;10.790;2022-07-30T01:23:43;22.30;99.20
42159;DHT22;27822;44.430;10.790;2022-07-30T01:26:13;22.30;99.40
42159;DHT22;27822;44.430;10.790;2022-07-30T01:28:44;22.30;99.60
42159;DHT22;27822;44.430;10.790;2022-07-30T01:31:12;22.30;99.70
42159;DHT22;27822;44.430;10.790;2022-07-30T01:33:42;22.20;99.70
42159;DHT22;27822;44.430;10.790;2022-07-30T01:36:11;22.20;99.80
42159;DHT22;27822;44.430;10.790;2022-07-30T01:38:40;22.20;99.90
42159;DHT22;27822;44.430;10.790;2022-07-30T01:41:08;22.30;99.90
42159;DHT22;27822;44.430;10.790;2022-07-30T01:43:35;22.30;99.70
42159;DHT22;27822;44.430;10.790;2022-07-30T01:46:03;22.30;99.50
42159;DHT22;27822;44.430;10.790;2022-07-30T01:48:34;22.30;99.70
42159;DHT22;27822;44.430;10.790;2022-07-30T01:51:04;22.30;99.90
42159;DHT22;27822;44.430;10.790;2022-07-30T01:53:32;22.20;99.90
42159;DHT22;27822;44.430;10.790;2022-07-30T01:56:00;22.30;99.90
42159;DHT22;27822;44.430;10.790;2022-07-30T01:58:30;22.30;99.90
42159;DHT22;27822;44.430;10.790;2022-07-30T02:00:57;22.30;99.90
42159;DHT22;27822;44.430;10.790;2022-07-30T02:03:25;22.30;99.90
42159;DHT22;27822;44.430;10.790;2022-07-30T02:05:56;22.30;99.90
42159;DHT22;27822;44.430;10.790;2022-07-30T02:08:43;22.30;99.90
42159;DHT22;27822;44.430;10.790;2022-07-30T02:11:14;22.30;99.90
42159;DHT22;27822;44.430;10.790;2022-07-30T02:13:47;22.30;99.90
42159;DHT22;27822;44.430;10.790;2022-07-30T02:16:36;22.30;99.90
42159;DHT22;27822;44.430;10.790;2022-07-30T02:19:10;22.30;99.90
42159;DHT22;27822;44.430;10.790;2022-07-30T02:21:40;22.20;99.90
42159;DHT22;27822;44.430;10.790;2022-07-30T02:24:11;22.20;99.90
42159;DHT22;27822;44.430;10.790;2022-07-30T02:26:38;22.20;99.80
42159;DHT22;27822;44.430;10.790;2022-07-30T02:29:05;22.20;99.70
42159;DHT22;27822;44.430;10.790;2022-07-30T02:31:32;22.20;99.60
42159;DHT22;27822;44.430;10.790;2022-07-30T02:34:01;22.20;99.60
42159;DHT22;27822;44.430;10.790;2022-07-30T02:36:28;22.20;99.50
42159;DHT22;27822;44.430;10.790;2022-07-30T02:38:56;22.20;99.40
42159;DHT22;27822;44.430;10.790;2022-07-30T02:41:27;22.20;99.50
42159;DHT22;27822;44.430;10.790;2022-07-30T02:43:56;22.20;99.90
42159;DHT22;27822;44.430;10.790;2022-07-30T02:46:24;22.10;99.90
42159;DHT22;27822;44.430;10.790;2022-07-30T02:48:52;22.20;99.90
42159;DHT22;27822;44.430;10.790;2022-07-30T02:51:21;22.20;99.90
42159;DHT22;27822;44.430;10.790;2022-07-30T02:53:49;22.10;99.90
42159;DHT22;27822;44.430;10.790;2022-07-30T02:56:17;22.10;99.90
42159;DHT22;27822;44.430;10.790;2022-07-30T02:58:44;22.10;99.90
42159;DHT22;27822;44.430;10.790;2022-07-30T03:01:12;22.10;99.90
42159;DHT22;27822;44.430;10.790;2022-07-30T03:03:42;22.10;99.90
42159;DHT22;27822;44.430;10.790;2022-07-30T03:06:08;22.10;99.90
42159;DHT22;27822;44.430;10.790;2022-07-30T03:08:35;22.10;99.90
42159;DHT22;27822;44.430;10.790;2022-07-30T03:11:02;22.20;99.90
42159;DHT22;27822;44.430;10.790;2022-07-30T03:13:28;22.10;99.90
42159;DHT22;27822;44.430;10.790;2022-07-30T03:15:56;22.10;99.90
42159;DHT22;27822;44.430;10.790;2022-07-30T03:18:22;22.10;99.90
42159;DHT22;27822;44.430;10.790;2022-07-30T03:20:52;22.10;99.90
42159;DHT22;27822;44.430;10.790;2022-07-30T03:23:19;22.10;99.90
42159;DHT22;27822;44.430;10.790;2022-07-30T03:25:48;22.10;99.90
42159;DHT22;27822;44.430;10.790;2022-07-30T03:28:16;22.10;99.90
42159;DHT22;27822;44.430;10.790;2022-07-30T03:30:42;22.20;99.90
42159;DHT22;27822;44.430;10.790;2022-07-30T03:33:10;22.10;99.90
42159;DHT22;27822;44.430;10.790;2022-07-30T03:35:37;22.10;99.90
42159;DHT22;27822;44.430;10.790;2022-07-30T03:38:04;22.10;99.90
42159;DHT22;27822;44.430;10.790;2022-07-30T03:40:31;22.10;99.90
42159;DHT22;27822;44.430;10.790;2022-07-30T03:42:57;22.10;99.90
42159;DHT22;27822;44.430;10.790;2022-07-30T03:45:23;22.10;99.90
42159;DHT22;27822;44.430;10.790;2022-07-30T03:47:50;22.20;99.90
42159;DHT22;27822;44.430;10.790;2022-07-30T03:50:16;22.20;99.90
42159;DHT22;27822;44.430;10.790;2022-07-30T03:52:42;22.20;99.90
42159;DHT22;27822;44.430;10.790;2022-07-30T03:55:10;22.20;99.90
42159;DHT22;27822;44.430;10.790;2022-07-30T03:57:36;22.20;99.90
42159;DHT22;27822;44.430;10.790;2022-07-30T04:00:06;22.20;99.90
42159;DHT22;27822;44.430;10.790;2022-07-30T04:02:40;22.20;99.90
42159;DHT22;27822;44.430;10.790;2022-07-30T04:05:07;22.20;99.90
42159;DHT22;27822;44.430;10.790;2022-07-30T04:07:32;22.20;99.90
42159;DHT22;27822;44.430;10.790;2022-07-30T04:09:58;22.20;99.90
42159;DHT22;27822;44.430;10.790;2022-07-30T04:12:24;22.20;99.90
42159;DHT22;27822;44.430;10.790;2022-07-30T04:14:50;22.20;99.90
42159;DHT22;27822;44.430;10.790;2022-07-30T04:17:23;22.30;99.90
42159;DHT22;27822;44.430;10.790;2022-07-30T04:19:52;22.30;99.90
42159;DHT22;27822;44.430;10.790;2022-07-30T04:22:32;22.30;99.90
42159;DHT22;27822;44.430;10.790;2022-07-30T04:25:01;22.30;99.90
42159;DHT22;27822;44.430;10.790;2022-07-30T04:27:28;22.30;99.90
42159;DHT22;27822;44.430;10.790;2022-07-30T04:29:55;22.30;99.90
42159;DHT22;27822;44.430;10.790;2022-07-30T04:32:22;22.30;99.90
42159;DHT22;27822;44.430;10.790;2022-07-30T04:34:49;22.30;99.90
42159;DHT22;27822;44.430;10.790;2022-07-30T04:37:18;22.30;99.90
42159;DHT22;27822;44.430;10.790;2022-07-30T04:39:44;22.30;99.90
42159;DHT22;27822;44.430;10.790;2022-07-30T04:42:10;22.30;99.90
42159;DHT22;27822;44.430;10.790;2022-07-30T04:44:36;22.30;99.90
42159;DHT22;27822;44.430;10.790;2022-07-30T04:47:03;22.30;99.90
42159;DHT22;27822;44.430;10.790;2022-07-30T04:49:29;22.30;99.80
42159;DHT22;27822;44.430;10.790;2022-07-30T04:51:55;22.30;99.70
42159;DHT22;27822;44.430;10.790;2022-07-30T04:54:23;22.30;99.70
42159;DHT22;27822;44.430;10.790;2022-07-30T04:56:50;22.30;99.70
42159;DHT22;27822;44.430;10.790;2022-07-30T04:59:17;22.30;99.70
42159;DHT22;27822;44.430;10.790;2022-07-30T05:01:47;22.30;99.80
42159;DHT22;27822;44.430;10.790;2022-07-30T05:04:14;22.30;99.90
42159;DHT22;27822;44.430;10.790;2022-07-30T05:06:41;22.30;99.90
42159;DHT22;27822;44.430;10.790;2022-07-30T05:09:08;22.40;99.90
42159;DHT22;27822;44.430;10.790;2022-07-30T05:11:34;22.40;99.90
42159;DHT22;27822;44.430;10.790;2022-07-30T05:14:00;23.80;99.10
42159;DHT22;27822;44.430;10.790;2022-07-30T05:16:26;25.30;96.80
42159;DHT22;27822;44.430;10.790;2022-07-30T05:18:52;26.50;94.70
42159;DHT22;27822;44.430;10.790;2022-07-30T05:21:18;26.90;93.10
42159;DHT22;27822;44.430;10.790;2022-07-30T05:23:44;26.40;93.20
42159;DHT22;27822;44.430;10.790;2022-07-30T05:26:10;25.90;93.70
42159;DHT22;27822;44.430;10.790;2022-07-30T05:28:35;25.40;94.40
42159;DHT22;27822;44.430;10.790;2022-07-30T05:31:01;24.90;95.00
42159;DHT22;27822;44.430;10.790;2022-07-30T05:33:27;25.70;95.40
42159;DHT22;27822;44.430;10.790;2022-07-30T05:35:53;28.00;93.00
42159;DHT22;27822;44.430;10.790;2022-07-30T05:38:18;29.70;89.50
42159;DHT22;27822;44.430;10.790;2022-07-30T05:40:44;32.40;83.30
42159;DHT22;27822;44.430;10.790;2022-07-30T05:43:11;34.60;76.20
42159;DHT22;27822;44.430;10.790;2022-07-30T05:45:37;34.80;73.00
42159;DHT22;27822;44.430;10.790;2022-07-30T05:48:03;34.40;72.30
42159;DHT22;27822;44.430;10.790;2022-07-30T05:50:29;33.80;72.30
42159;DHT22;27822;44.430;10.790;2022-07-30T05:52:55;33.00;73.20
42159;DHT22;27822;44.430;10.790;2022-07-30T05:55:22;32.30;75.20
42159;DHT22;27822;44.430;10.790;2022-07-30T05:57:48;31.70;76.80
42159;DHT22;27822;44.430;10.790;2022-07-30T06:00:14;31.00;77.70
42159;DHT22;27822;44.430;10.790;2022-07-30T06:02:40;30.50;78.30
42159;DHT22;27822;44.430;10.790;2022-07-30T06:05:06;30.10;80.60
42159;DHT22;27822;44.430;10.790;2022-07-30T06:07:32;29.80;81.00
42159;DHT22;27822;44.430;10.790;2022-07-30T06:09:59;29.60;81.90
42159;DHT22;27822;44.430;10.790;2022-07-30T06:12:29;29.40;82.00
42159;DHT22;27822;44.430;10.790;2022-07-30T06:14:56;29.30;81.90
42159;DHT22;27822;44.430;10.790;2022-07-30T06:17:22;29.20;83.00
42159;DHT22;27822;44.430;10.790;2022-07-30T06:19:47;29.20;81.50
42159;DHT22;27822;44.430;10.790;2022-07-30T06:22:13;29.10;82.70
42159;DHT22;27822;44.430;10.790;2022-07-30T06:24:39;28.90;83.20
42159;DHT22;27822;44.430;10.790;2022-07-30T06:27:05;28.80;82.30
42159;DHT22;27822;44.430;10.790;2022-07-30T06:29:31;28.70;81.70
42159;DHT22;27822;44.430;10.790;2022-07-30T06:31:56;28.60;81.50
42159;DHT22;27822;44.430;10.790;2022-07-30T06:34:22;28.60;83.40
42159;DHT22;27822;44.430;10.790;2022-07-30T06:36:48;28.50;80.30
42159;DHT22;27822;44.430;10.790;2022-07-30T06:39:14;28.50;82.10
42159;DHT22;27822;44.430;10.790;2022-07-30T06:41:40;28.40;81.00
42159;DHT22;27822;44.430;10.790;2022-07-30T06:44:05;28.50;81.80
42159;DHT22;27822;44.430;10.790;2022-07-30T06:46:31;28.50;82.50
42159;DHT22;27822;44.430;10.790;2022-07-30T06:48:57;28.60;82.40
42159;DHT22;27822;44.430;10.790;2022-07-30T06:51:23;28.60;82.40
42159;DHT22;27822;44.430;10.790;2022-07-30T06:53:48;28.50;82.30
42159;DHT22;27822;44.430;10.790;2022-07-30T06:56:14;28.40;82.20
42159;DHT22;27822;44.430;10.790;2022-07-30T06:58:40;28.40;82.50
42159;DHT22;27822;44.430;10.790;2022-07-30T07:01:06;28.40;82.50
42159;DHT22;27822;44.430;10.790;2022-07-30T07:03:32;28.40;82.10
42159;DHT22;27822;44.430;10.790;2022-07-30T07:05:58;28.50;82.40
42159;DHT22;27822;44.430;10.790;2022-07-30T07:08:23;28.50;82.30
42159;DHT22;27822;44.430;10.790;2022-07-30T07:10:49;28.40;81.50
42159;DHT22;27822;44.430;10.790;2022-07-30T07:13:15;28.50;81.70
42159;DHT22;27822;44.430;10.790;2022-07-30T07:15:41;28.60;81.70
42159;DHT22;27822;44.430;10.790;2022-07-30T07:18:07;28.60;81.70
42159;DHT22;27822;44.430;10.790;2022-07-30T07:20:33;28.50;81.20
42159;DHT22;27822;44.430;10.790;2022-07-30T07:22:59;28.40;79.00
42159;DHT22;27822;44.430;10.790;2022-07-30T07:25:27;28.30;80.50
42159;DHT22;27822;44.430;10.790;2022-07-30T07:27:52;28.20;81.80
42159;DHT22;27822;44.430;10.790;2022-07-30T07:30:18;28.10;81.70
42159;DHT22;27822;44.430;10.790;2022-07-30T07:32:44;28.30;80.70
42159;DHT22;27822;44.430;10.790;2022-07-30T07:35:10;28.20;82.00
42159;DHT22;27822;44.430;10.790;2022-07-30T07:37:38;28.10;82.20
42159;DHT22;27822;44.430;10.790;2022-07-30T07:40:05;28.10;83.40
42159;DHT22;27822;44.430;10.790;2022-07-30T07:42:30;28.10;83.90
42159;DHT22;27822;44.430;10.790;2022-07-30T07:44:56;28.00;84.10
42159;DHT22;27822;44.430;10.790;2022-07-30T07:47:22;27.90;83.70
42159;DHT22;27822;44.430;10.790;2022-07-30T07:49:48;27.60;85.20
42159;DHT22;27822;44.430;10.790;2022-07-30T07:52:13;27.40;87.20
42159;DHT22;27822;44.430;10.790;2022-07-30T07:54:48;27.40;87.30
42159;DHT22;27822;44.430;10.790;2022-07-30T07:57:18;27.40;87.20
42159;DHT22;27822;44.430;10.790;2022-07-30T07:59:44;27.50;87.40
42159;DHT22;27822;44.430;10.790;2022-07-30T08:02:13;27.50;88.20
42159;DHT22;27822;44.430;10.790;2022-07-30T08:04:39;27.50;87.70
42159;DHT22;27822;44.430;10.790;2022-07-30T08:07:06;27.60;86.70
42159;DHT22;27822;44.430;10.790;2022-07-30T08:09:32;27.60;86.40
42159;DHT22;27822;44.430;10.790;2022-07-30T08:11:58;27.60;87.20
42159;DHT22;27822;44.430;10.790;2022-07-30T08:14:24;27.50;87.50
42159;DHT22;27822;44.430;10.790;2022-07-30T08:16:50;27.60;87.60
42159;DHT22;27822;44.430;10.790;2022-07-30T08:19:19;27.60;88.00
42159;DHT22;27822;44.430;10.790;2022-07-30T08:21:49;27.40;85.90
42159;DHT22;27822;44.430;10.790;2022-07-30T08:24:15;27.30;86.50
42159;DHT22;27822;44.430;10.790;2022-07-30T08:26:42;27.40;87.70
42159;DHT22;27822;44.430;10.790;2022-07-30T08:29:08;27.40;87.90
42159;DHT22;27822;44.430;10.790;2022-07-30T08:31:37;27.30;87.70
42159;DHT22;27822;44.430;10.790;2022-07-30T08:34:06;27.30;86.80
42159;DHT22;27822;44.430;10.790;2022-07-30T08:36:32;27.30;88.90
42159;DHT22;27822;44.430;10.790;2022-07-30T08:38:58;27.30;88.70
42159;DHT22;27822;44.430;10.790;2022-07-30T08:41:27;27.40;88.00
42159;DHT22;27822;44.430;10.790;2022-07-30T08:43:54;27.40;87.60
42159;DHT22;27822;44.430;10.790;2022-07-30T08:46:23;27.40;88.00
42159;DHT22;27822;44.430;10.790;2022-07-30T08:48:51;27.50;88.30
42159;DHT22;27822;44.430;10.790;2022-07-30T08:51:18;27.60;88.40
42159;DHT22;27822;44.430;10.790;2022-07-30T08:53:45;27.60;88.90
42159;DHT22;27822;44.430;10.790;2022-07-30T08:56:12;27.60;88.50
42159;DHT22;27822;44.430;10.790;2022-07-30T08:58:38;27.60;88.00
42159;DHT22;27822;44.430;10.790;2022-07-30T09:01:15;27.70;88.30
42159;DHT22;27822;44.430;10.790;2022-07-30T09:03:50;27.50;88.40
42159;DHT22;27822;44.430;10.790;2022-07-30T09:06:16;27.50;86.90
42159;DHT22;27822;44.430;10.790;2022-07-30T09:08:43;27.50;86.90
42159;DHT22;27822;44.430;10.790;2022-07-30T09:11:09;27.60;86.30
42159;DHT22;27822;44.430;10.790;2022-07-30T09:13:37;27.70;86.10
42159;DHT22;27822;44.430;10.790;2022-07-30T09:16:05;27.60;86.40
42159;DHT22;27822;44.430;10.790;2022-07-30T09:18:32;27.60;85.40
42159;DHT22;27822;44.430;10.790;2022-07-30T09:21:18;27.70;86.20
42159;DHT22;27822;44.430;10.790;2022-07-30T09:24:00;27.80;86.80
42159;DHT22;27822;44.430;10.790;2022-07-30T09:26:28;27.80;85.40
42159;DHT22;27822;44.430;10.790;2022-07-30T09:28:54;28.00;85.70
42159;DHT22;27822;44.430;10.790;2022-07-30T09:31:21;28.10;85.00
42159;DHT22;27822;44.430;10.790;2022-07-30T09:33:48;28.00;84.70
42159;DHT22;27822;44.430;10.790;2022-07-30T09:36:16;27.90;85.40
42159;DHT22;27822;44.430;10.790;2022-07-30T09:41:40;27.80;86.40
42159;DHT22;27822;44.430;10.790;2022-07-30T09:44:06;27.80;85.60
42159;DHT22;27822;44.430;10.790;2022-07-30T09:46:46;27.80;85.20
42159;DHT22;27822;44.430;10.790;2022-07-30T09:49:21;27.70;85.50
42159;DHT22;27822;44.430;10.790;2022-07-30T09:51:48;27.70;84.30
42159;DHT22;27822;44.430;10.790;2022-07-30T09:54:14;27.80;85.00
42159;DHT22;27822;44.430;10.790;2022-07-30T09:56:40;27.80;84.90
42159;DHT22;27822;44.430;10.790;2022-07-30T09:59:37;27.80;84.70
42159;DHT22;27822;44.430;10.790;2022-07-30T10:02:04;27.80;84.80
42159;DHT22;27822;44.430;10.790;2022-07-30T10:04:31;27.80;84.70
42159;DHT22;27822;44.430;10.790;2022-07-30T10:06:59;27.80;83.50
42159;DHT22;27822;44.430;10.790;2022-07-30T10:09:34;27.70;84.90
42159;DHT22;27822;44.430;10.790;2022-07-30T10:12:02;27.70;85.90
42159;DHT22;27822;44.430;10.790;2022-07-30T10:14:31;27.60;85.30
42159;DHT22;27822;44.430;10.790;2022-07-30T10:16:58;27.60;84.40
42159;DHT22;27822;44.430;10.790;2022-07-30T10:19:25;27.50;84.00
42159;DHT22;27822;44.430;10.790;2022-07-30T10:21:51;27.50;83.40
42159;DHT22;27822;44.430;10.790;2022-07-30T10:24:19;27.50;83.90
42159;DHT22;27822;44.430;10.790;2022-07-30T10:26:54;27.60;85.10
42159;DHT22;27822;44.430;10.790;2022-07-30T10:29:20;27.60;84.90
42159;DHT22;27822;44.430;10.790;2022-07-30T10:31:47;27.60;84.20
42159;DHT22;27822;44.430;10.790;2022-07-30T10:34:15;27.40;85.50
42159;DHT22;27822;44.430;10.790;2022-07-30T10:36:48;27.40;85.90
42159;DHT22;27822;44.430;10.790;2022-07-30T10:39:20;27.40;83.50
42159;DHT22;27822;44.430;10.790;2022-07-30T10:45:01;27.50;82.60
42159;DHT22;27822;44.430;10.790;2022-07-30T10:47:28;27.50;82.60
42159;DHT22;27822;44.430;10.790;2022-07-30T10:50:11;27.50;82.90
42159;DHT22;27822;44.430;10.790;2022-07-30T10:52:47;27.50;82.60
42159;DHT22;27822;44.430;10.790;2022-07-30T10:55:23;27.40;83.70
42159;DHT22;27822;44.430;10.790;2022-07-30T11:00:32;27.50;82.50
42159;DHT22;27822;44.430;10.790;2022-07-30T11:03:17;27.60;82.60
42159;DHT22;27822;44.430;10.790;2022-07-30T11:05:47;27.60;81.80
42159;DHT22;27822;44.430;10.790;2022-07-30T11:08:33;27.60;81.50
42159;DHT22;27822;44.430;10.790;2022-07-30T11:10:59;27.50;81.40
42159;DHT22;27822;44.430;10.790;2022-07-30T11:13:51;27.50;79.50
42159;DHT22;27822;44.430;10.790;2022-07-30T11:16:18;27.50;80.40
42159;DHT22;27822;44.430;10.790;2022-07-30T11:19:07;27.60;80.40
42159;DHT22;27822;44.430;10.790;2022-07-30T11:21:34;27.60;79.90
42159;DHT22;27822;44.430;10.790;2022-07-30T11:24:00;27.60;80.60
42159;DHT22;27822;44.430;10.790;2022-07-30T11:29:05;27.60;81.20
42159;DHT22;27822;44.430;10.790;2022-07-30T11:31:36;27.60;80.40
42159;DHT22;27822;44.430;10.790;2022-07-30T11:37:10;27.40;80.10
42159;DHT22;27822;44.430;10.790;2022-07-30T11:42:32;27.40;80.90
42159;DHT22;27822;44.430;10.790;2022-07-30T11:45:18;27.50;79.80
42159;DHT22;27822;44.430;10.790;2022-07-30T11:47:52;27.50;78.30
42159;DHT22;27822;44.430;10.790;2022-07-30T11:50:30;27.50;78.60
42159;DHT22;27822;44.430;10.790;2022-07-30T11:53:08;27.40;77.70
42159;DHT22;27822;44.430;10.790;2022-07-30T11:55:39;27.40;77.50
42159;DHT22;27822;44.430;10.790;2022-07-30T11:58:07;27.50;77.40
42159;DHT22;27822;44.430;10.790;2022-07-30T12:00:40;27.60;77.10
42159;DHT22;27822;44.430;10.790;2022-07-30T12:03:07;27.60;77.60
42159;DHT22;27822;44.430;10.790;2022-07-30T12:05:34;27.60;76.60
42159;DHT22;27822;44.430;10.790;2022-07-30T12:07:59;27.60;77.70
42159;DHT22;27822;44.430;10.790;2022-07-30T12:10:25;27.60;77.70
42159;DHT22;27822;44.430;10.790;2022-07-30T12:12:51;27.70;76.20
42159;DHT22;27822;44.430;10.790;2022-07-30T12:15:33;27.70;76.80
42159;DHT22;27822;44.430;10.790;2022-07-30T12:17:59;27.70;77.20
42159;DHT22;27822;44.430;10.790;2022-07-30T12:20:28;27.80;75.30
42159;DHT22;27822;44.430;10.790;2022-07-30T12:22:55;27.80;75.60
42159;DHT22;27822;44.430;10.790;2022-07-30T12:25:21;27.80;74.60
42159;DHT22;27822;44.430;10.790;2022-07-30T12:27:49;27.70;75.90
42159;DHT22;27822;44.430;10.790;2022-07-30T12:30:16;27.60;76.70
42159;DHT22;27822;44.430;10.790;2022-07-30T12:32:43;27.60;77.00
42159;DHT22;27822;44.430;10.790;2022-07-30T12:35:09;27.70;77.50
42159;DHT22;27822;44.430;10.790;2022-07-30T12:37:35;27.60;76.90
42159;DHT22;27822;44.430;10.790;2022-07-30T12:40:06;27.70;77.50
42159;DHT22;27822;44.430;10.790;2022-07-30T12:42:32;27.70;77.70
42159;DHT22;27822;44.430;10.790;2022-07-30T12:44:58;27.80;75.80
42159;DHT22;27822;44.430;10.790;2022-07-30T12:47:26;27.80;76.20
42159;DHT22;27822;44.430;10.790;2022-07-30T12:49:55;27.70;76.20
42159;DHT22;27822;44.430;10.790;2022-07-30T12:52:31;27.70;76.20
42159;DHT22;27822;44.430;10.790;2022-07-30T12:55:07;27.60;76.60
42159;DHT22;27822;44.430;10.790;2022-07-30T12:58:05;27.60;75.10
42159;DHT22;27822;44.430;10.790;2022-07-30T13:03:21;27.50;76.80
42159;DHT22;27822;44.430;10.790;2022-07-30T13:05:49;27.40;76.00
42159;DHT22;27822;44.430;10.790;2022-07-30T13:08:16;27.40;77.30
42159;DHT22;27822;44.430;10.790;2022-07-30T13:10:59;27.40;77.90
42159;DHT22;27822;44.430;10.790;2022-07-30T13:13:28;27.40;77.40
42159;DHT22;27822;44.430;10.790;2022-07-30T13:15:56;27.50;77.60
42159;DHT22;27822;44.430;10.790;2022-07-30T13:18:21;27.50;77.60
42159;DHT22;27822;44.430;10.790;2022-07-30T13:20:47;27.60;77.20
42159;DHT22;27822;44.430;10.790;2022-07-30T13:23:13;27.60;76.20
42159;DHT22;27822;44.430;10.790;2022-07-30T13:25:39;27.60;75.30
42159;DHT22;27822;44.430;10.790;2022-07-30T13:28:05;27.50;76.10
42159;DHT22;27822;44.430;10.790;2022-07-30T13:30:31;27.50;76.40
42159;DHT22;27822;44.430;10.790;2022-07-30T13:32:56;27.50;76.80
42159;DHT22;27822;44.430;10.790;2022-07-30T13:35:22;27.60;75.80
42159;DHT22;27822;44.430;10.790;2022-07-30T13:37:48;27.60;76.30
42159;DHT22;27822;44.430;10.790;2022-07-30T13:40:14;27.60;76.70
42159;DHT22;27822;44.430;10.790;2022-07-30T13:42:40;27.60;76.40
42159;DHT22;27822;44.430;10.790;2022-07-30T13:45:06;27.60;76.40
42159;DHT22;27822;44.430;10.790;2022-07-30T13:47:31;27.60;76.80
42159;DHT22;27822;44.430;10.790;2022-07-30T13:49:57;27.50;75.80
42159;DHT22;27822;44.430;10.790;2022-07-30T13:52:23;27.50;76.50
42159;DHT22;27822;44.430;10.790;2022-07-30T13:54:49;27.50;76.10
42159;DHT22;27822;44.430;10.790;2022-07-30T13:57:17;27.50;74.50
42159;DHT22;27822;44.430;10.790;2022-07-30T13:59:43;27.50;75.00
42159;DHT22;27822;44.430;10.790;2022-07-30T14:02:09;27.50;74.50
42159;DHT22;27822;44.430;10.790;2022-07-30T14:04:35;27.50;75.10
42159;DHT22;27822;44.430;10.790;2022-07-30T14:07:01;27.50;72.70
42159;DHT22;27822;44.430;10.790;2022-07-30T14:09:27;27.40;73.50
42159;DHT22;27822;44.430;10.790;2022-07-30T14:11:53;27.50;73.00
42159;DHT22;27822;44.430;10.790;2022-07-30T14:14:19;27.60;71.70
42159;DHT22;27822;44.430;10.790;2022-07-30T14:16:47;27.50;71.80
42159;DHT22;27822;44.430;10.790;2022-07-30T14:19:15;27.50;72.20
42159;DHT22;27822;44.430;10.790;2022-07-30T14:21:41;27.40;71.40
42159;DHT22;27822;44.430;10.790;2022-07-30T14:24:07;27.40;71.10
42159;DHT22;27822;44.430;10.790;2022-07-30T14:26:38;27.40;71.80
42159;DHT22;27822;44.430;10.790;2022-07-30T14:29:05;27.40;73.60
42159;DHT22;27822;44.430;10.790;2022-07-30T14:31:31;27.30;74.20
42159;DHT22;27822;44.430;10.790;2022-07-30T14:33:56;27.30;72.90
42159;DHT22;27822;44.430;10.790;2022-07-30T14:36:22;27.40;72.90
42159;DHT22;27822;44.430;10.790;2022-07-30T14:38:50;27.40;73.80
42159;DHT22;27822;44.430;10.790;2022-07-30T14:41:15;27.40;73.90
42159;DHT22;27822;44.430;10.790;2022-07-30T14:43:41;27.20;74.30
42159;DHT22;27822;44.430;10.790;2022-07-30T14:46:07;27.30;73.90
42159;DHT22;27822;44.430;10.790;2022-07-30T14:48:33;27.30;73.30
42159;DHT22;27822;44.430;10.790;2022-07-30T14:50:58;27.30;71.00
42159;DHT22;27822;44.430;10.790;2022-07-30T14:53:26;27.30;70.90
42159;DHT22;27822;44.430;10.790;2022-07-30T14:55:52;27.40;70.70
42159;DHT22;27822;44.430;10.790;2022-07-30T14:58:18;27.30;69.20
42159;DHT22;27822;44.430;10.790;2022-07-30T15:00:44;27.30;69.50
42159;DHT22;27822;44.430;10.790;2022-07-30T15:03:09;27.30;70.20
42159;DHT22;27822;44.430;10.790;2022-07-30T15:05:35;27.30;70.40
42159;DHT22;27822;44.430;10.790;2022-07-30T15:08:01;27.30;70.20
42159;DHT22;27822;44.430;10.790;2022-07-30T15:10:27;27.40;69.60
42159;DHT22;27822;44.430;10.790;2022-07-30T15:12:53;27.40;70.10
42159;DHT22;27822;44.430;10.790;2022-07-30T15:15:18;27.40;70.10
42159;DHT22;27822;44.430;10.790;2022-07-30T15:17:44;27.40;68.40
42159;DHT22;27822;44.430;10.790;2022-07-30T15:20:10;27.40;67.20
42159;DHT22;27822;44.430;10.790;2022-07-30T15:22:36;27.30;66.60
42159;DHT22;27822;44.430;10.790;2022-07-30T15:25:03;27.30;66.20
42159;DHT22;27822;44.430;10.790;2022-07-30T15:27:29;27.30;65.40
42159;DHT22;27822;44.430;10.790;2022-07-30T15:29:56;27.20;64.50
42159;DHT22;27822;44.430;10.790;2022-07-30T15:32:21;27.20;66.00
42159;DHT22;27822;44.430;10.790;2022-07-30T15:34:47;27.30;68.10
42159;DHT22;27822;44.430;10.790;2022-07-30T15:37:13;27.30;68.00
42159;DHT22;27822;44.430;10.790;2022-07-30T15:39:40;27.30;68.00